Aviation Digital Data Service (ADDS)

Output produced by METARs form (1309 UTC 16 July 2019)
found at http://www.aviationweather.gov/metar/data/
 
FSIA 161300Z 12011G23KT 040V180 9999 BKN015 27/24 Q1012 NOSIG
TAF FSIA 161104Z 1612/1712 13015G25KT 9999 SCT020 
     TEMPO 1614/1618 8000 SHRA BKN018 
     TEMPO 1709/1712 8000 -SHRA BKN018